Time;durP1;ratioP1;P1;durP2;ratioP2;P2;SDS_P1;SDS_P2;PMS_P1;PMS_P2;Temp;Humidity;BMP_temperature;BMP_pressure;BME280_temperature;BME280_humidity;BME280_pressure;Samples;Min_cycle;Max_cycle;Signal;HPM_P1;HPM_P2
2023/09/21 00:01:38;;;;;;;;;;;;;;;21.89;51.18;99961.19;4957604;28;120116;-79
2023/09/21 00:04:06;;;;;;;;;;;;;;;21.89;51.16;99953.09;4963671;28;124583;-79
2023/09/21 00:06:33;;;;;;;;;;;;;;;21.88;51.17;99959.47;4960018;28;123728;-79
2023/09/21 00:09:00;;;;;;;;;;;;;;;21.89;51.07;99955.78;4959801;28;119574;-79
2023/09/21 00:11:28;;;;;;;;;;;;;;;21.90;51.11;99952.06;4950486;28;118984;-79
2023/09/21 00:13:55;;;;;;;;;;;;;;;21.87;51.01;99941.63;4956995;28;124559;-79
2023/09/21 00:16:25;;;;;;;;;;;;;;;21.86;51.04;99948.03;4961121;28;125357;-79
2023/09/21 00:18:52;;;;;;;;;;;;;;;21.85;51.06;99943.66;4963493;28;119186;-79
2023/09/21 00:21:19;;;;;;;;;;;;;;;21.82;51.02;99933.19;4955389;28;119306;-79
2023/09/21 00:23:47;;;;;;;;;;;;;;;21.80;51.10;99937.91;4963759;28;123925;-79
2023/09/21 00:26:15;;;;;;;;;;;;;;;21.78;51.07;99938.06;4955872;28;124426;-79
2023/09/21 00:28:48;;;;;;;;;;;;;;;21.77;51.05;99930.13;4965646;28;120169;-79
2023/09/21 00:31:15;;;;;;;;;;;;;;;21.73;51.08;99923.38;4964752;28;119425;-79
2023/09/21 00:33:42;;;;;;;;;;;;;;;21.72;51.08;99927.09;4962091;28;123908;-79
2023/09/21 00:36:09;;;;;;;;;;;;;;;21.70;51.21;99913.78;4966093;28;123247;-80
2023/09/21 00:38:39;;;;;;;;;;;;;;;21.70;51.17;99912.94;4950850;28;120187;-80
2023/09/21 00:41:07;;;;;;;;;;;;;;;21.70;51.12;99907.53;4950666;28;117644;-80
2023/09/21 00:43:34;;;;;;;;;;;;;;;21.68;51.09;99898.78;4984057;28;123540;-81
2023/09/21 00:46:05;;;;;;;;;;;;;;;21.67;51.10;99891.72;4977391;28;121619;-80
2023/09/21 00:48:36;;;;;;;;;;;;;;;21.64;51.16;99897.41;4979355;28;117309;-80
2023/09/21 00:51:07;;;;;;;;;;;;;;;21.64;51.10;99897.41;4959523;28;118888;-80
2023/09/21 00:53:36;;;;;;;;;;;;;;;21.63;51.14;99890.34;4967048;28;124402;-80
2023/09/21 00:56:08;;;;;;;;;;;;;;;21.64;51.06;99886.63;4956838;28;122915;-80
2023/09/21 00:58:36;;;;;;;;;;;;;;;21.61;51.10;99877.03;4964264;28;118142;-80
2023/09/21 01:01:05;;;;;;;;;;;;;;;21.62;51.21;99880.56;4962319;28;119485;-80
2023/09/21 01:03:37;;;;;;;;;;;;;;;21.60;51.11;99885.28;4967232;28;124241;-80
2023/09/21 01:06:08;;;;;;;;;;;;;;;21.61;51.15;99881.59;4957317;28;123296;-80
2023/09/21 01:08:35;;;;;;;;;;;;;;;21.60;51.11;99874.50;4970115;28;119513;-80
2023/09/21 01:11:10;;;;;;;;;;;;;;;21.58;51.02;99856.63;4968504;28;118646;-80
2023/09/21 01:13:37;;;;;;;;;;;;;;;21.58;51.08;99856.63;4968445;28;125035;-80
2023/09/21 01:16:05;;;;;;;;;;;;;;;21.57;51.10;99860.34;4968499;28;124679;-80
2023/09/21 01:18:33;;;;;;;;;;;;;;;21.55;51.14;99854.28;4949174;28;119742;-80
2023/09/21 01:21:06;;;;;;;;;;;;;;;21.55;51.14;99851.59;4967429;28;120073;-80
2023/09/21 01:23:47;;;;;;;;;;;;;;;21.54;51.19;99849.91;4961353;28;125047;-80
2023/09/21 01:26:15;;;;;;;;;;;;;;;21.54;51.13;99843.69;4967801;28;126036;-80
2023/09/21 01:28:44;;;;;;;;;;;;;;;21.56;51.16;99842.50;4961752;28;120926;-80
2023/09/21 01:31:13;;;;;;;;;;;;;;;21.58;51.35;99850.41;4968474;28;120970;-80
2023/09/21 01:33:44;;;;;;;;;;;;;;;21.58;51.17;99845.84;4970825;28;122795;-80
2023/09/21 01:36:12;;;;;;;;;;;;;;;21.61;51.17;99843.88;4943395;28;122269;-80
2023/09/21 01:38:44;;;;;;;;;;;;;;;21.64;51.28;99838.13;4968438;28;119646;-80
2023/09/21 01:41:13;;;;;;;;;;;;;;;21.66;51.22;99836.13;4971485;28;118590;-80
2023/09/21 01:43:40;;;;;;;;;;;;;;;21.69;51.23;99825.00;4965300;28;125154;-80
2023/09/21 01:46:07;;;;;;;;;;;;;;;21.71;51.27;99836.47;4965347;28;125047;-80
2023/09/21 01:48:34;;;;;;;;;;;;;;;21.74;51.09;99811.88;4962630;28;119366;-80
2023/09/21 01:51:01;;;;;;;;;;;;;;;21.76;51.24;99820.66;4967351;28;118449;-80
2023/09/21 01:53:28;;;;;;;;;;;;;;;21.80;51.10;99823.84;4948294;28;123316;-80
2023/09/21 01:55:58;;;;;;;;;;;;;;;21.82;51.24;99809.19;4983936;28;124292;-80
2023/09/21 01:58:25;;;;;;;;;;;;;;;21.85;51.14;99813.38;4963729;28;117923;-80
2023/09/21 02:00:52;;;;;;;;;;;;;;;21.87;51.08;99796.06;4973866;28;117498;-79
2023/09/21 02:03:20;;;;;;;;;;;;;;;21.88;51.12;99803.13;4960045;28;124526;-80
2023/09/21 02:05:47;;;;;;;;;;;;;;;21.88;51.11;99797.72;4978781;28;123609;-80
2023/09/21 02:08:18;;;;;;;;;;;;;;;21.91;50.99;99792.00;4965544;28;119258;-80
2023/09/21 02:10:49;;;;;;;;;;;;;;;21.91;51.02;99786.63;4965975;28;119903;-80
2023/09/21 02:13:17;;;;;;;;;;;;;;;21.89;51.00;99791.34;4963440;28;124938;-80
2023/09/21 02:15:44;;;;;;;;;;;;;;;21.89;50.93;99780.56;4965435;28;125221;-80
2023/09/21 02:18:11;;;;;;;;;;;;;;;21.88;50.93;99778.84;4963785;28;118684;-80
2023/09/21 02:20:40;;;;;;;;;;;;;;;21.86;50.92;99778.19;4964819;28;119938;-80
2023/09/21 02:23:08;;;;;;;;;;;;;;;21.86;50.89;99783.56;4949188;28;123539;-80
2023/09/21 02:25:35;;;;;;;;;;;;;;;21.84;50.82;99780.22;4968494;28;124234;-80
2023/09/21 02:28:09;;;;;;;;;;;;;;;21.82;50.89;99776.84;4953511;28;119897;-80
2023/09/21 02:30:37;;;;;;;;;;;;;;;21.80;50.89;99778.88;4965563;28;117769;-80
2023/09/21 02:33:05;;;;;;;;;;;;;;;21.79;51.01;99777.16;4970507;28;123369;-80
2023/09/21 02:35:33;;;;;;;;;;;;;;;21.80;50.93;99778.88;4961618;28;124038;-80
2023/09/21 02:38:00;;;;;;;;;;;;;;;21.78;50.86;99779.03;4964050;28;119600;-80
2023/09/21 02:40:28;;;;;;;;;;;;;;;21.78;50.88;99770.09;4958549;28;119768;-80
2023/09/21 02:42:56;;;;;;;;;;;;;;;21.76;50.94;99769.44;4955288;28;123504;-80
2023/09/21 02:45:24;;;;;;;;;;;;;;;21.74;50.77;99774.16;4963113;28;124133;-79
2023/09/21 02:47:52;;;;;;;;;;;;;;;21.72;50.96;99768.94;4964517;28;120096;-80
2023/09/21 02:50:25;;;;;;;;;;;;;;;21.70;50.82;99768.25;4961495;28;118907;-79
2023/09/21 02:53:04;;;;;;;;;;;;;;;21.69;50.98;99765.72;4964769;28;124145;-80
2023/09/21 02:55:31;;;;;;;;;;;;;;;21.66;50.81;99769.59;4957851;28;122345;-80
2023/09/21 02:58:09;;;;;;;;;;;;;;;21.66;51.05;99766.03;4962933;28;119862;-80
2023/09/21 03:00:43;;;;;;;;;;;;;;;21.64;50.83;99757.28;4962376;28;117421;-80
2023/09/21 03:03:14;;;;;;;;;;;;;;;21.63;50.82;99761.00;4961872;28;124515;-80
2023/09/21 03:05:46;;;;;;;;;;;;;;;21.61;50.90;99763.88;4962380;28;125642;-80
2023/09/21 03:08:14;;;;;;;;;;;;;;;21.60;50.87;99766.72;4965446;28;120394;-80
2023/09/21 03:10:47;;;;;;;;;;;;;;;21.57;50.91;99760.66;4963664;28;119504;-80
2023/09/21 03:13:17;;;;;;;;;;;;;;;21.54;50.88;99758.28;4949259;28;124194;-80
2023/09/21 03:15:47;;;;;;;;;;;;;;;21.52;50.85;99754.91;4958047;28;123524;-80
2023/09/21 03:18:15;;;;;;;;;;;;;;;21.50;50.84;99751.56;4967622;28;119581;-80
2023/09/21 03:20:43;;;;;;;;;;;;;;;21.48;50.87;99748.19;4957064;28;117765;-80
2023/09/21 03:23:12;;;;;;;;;;;;;;;21.45;50.98;99748.50;4946002;28;123026;-80
2023/09/21 03:25:41;;;;;;;;;;;;;;;21.44;51.01;99746.84;4956527;28;122815;-80
2023/09/21 03:28:15;;;;;;;;;;;;;;;21.43;50.96;99745.13;4965026;28;119422;-80
2023/09/21 03:30:43;;;;;;;;;;;;;;;21.42;50.90;99742.56;4952762;28;118328;-80
2023/09/21 03:33:10;;;;;;;;;;;;;;;21.41;51.05;99735.53;4954285;28;124202;-80
2023/09/21 03:35:37;;;;;;;;;;;;;;;21.39;50.91;99733.00;4958062;28;123647;-80
2023/09/21 03:38:15;;;;;;;;;;;;;;;21.38;51.10;99736.72;4963988;28;119457;-80
2023/09/21 03:40:42;;;;;;;;;;;;;;;21.37;51.05;99745.78;4952581;28;118709;-80
2023/09/21 03:43:10;;;;;;;;;;;;;;;21.37;51.10;99740.41;4960968;28;123387;-80
2023/09/21 03:45:38;;;;;;;;;;;;;;;21.36;51.03;99738.69;4943786;28;123647;-80
2023/09/21 03:48:08;;;;;;;;;;;;;;;21.36;51.05;99738.69;4964497;28;118564;-80
2023/09/21 03:50:40;;;;;;;;;;;;;;;21.38;51.07;99731.31;4959449;28;118461;-80
2023/09/21 03:53:09;;;;;;;;;;;;;;;21.39;51.05;99730.28;4961881;28;124143;-80
2023/09/21 03:55:38;;;;;;;;;;;;;;;21.39;51.06;99733.00;4959705;28;123787;-80
2023/09/21 03:58:07;;;;;;;;;;;;;;;21.39;51.09;99727.59;4958744;28;119955;-80
2023/09/21 04:03:06;;;;;;;;;;;;;;;21.37;51.03;99718.84;4961343;28;124806;-80
2023/09/21 04:05:37;;;;;;;;;;;;;;;21.37;51.15;99713.47;4962764;28;123470;-80
2023/09/21 04:08:05;;;;;;;;;;;;;;;21.37;51.03;99716.16;4958641;28;120048;-80
2023/09/21 04:10:33;;;;;;;;;;;;;;;21.37;51.07;99713.47;4969034;28;118142;-80
2023/09/21 04:13:00;;;;;;;;;;;;;;;21.36;50.95;99711.75;4963731;28;124516;-80
2023/09/21 04:15:28;;;;;;;;;;;;;;;21.34;51.06;99708.41;4967088;28;123490;-79
2023/09/21 04:17:57;;;;;;;;;;;;;;;21.32;50.91;99716.66;4966111;28;119105;-80
2023/09/21 04:20:24;;;;;;;;;;;;;;;21.31;51.02;99708.75;4967816;28;118673;-80
2023/09/21 04:22:55;;;;;;;;;;;;;;;21.31;50.97;99708.75;4952516;28;124974;-79
2023/09/21 04:25:22;;;;;;;;;;;;;;;21.29;51.17;99700.81;4968292;28;123729;-79
2023/09/21 04:27:49;;;;;;;;;;;;;;;21.29;51.10;99705.38;4970160;28;119376;-80
2023/09/21 04:30:18;;;;;;;;;;;;;;;21.30;51.11;99707.06;4946732;28;117783;-80
2023/09/21 04:32:46;;;;;;;;;;;;;;;21.30;51.05;99707.06;4959490;28;126222;-80
2023/09/21 04:35:17;;;;;;;;;;;;;;;21.29;51.16;99705.38;4959033;28;125770;-80
2023/09/21 04:37:45;;;;;;;;;;;;;;;21.30;51.08;99712.44;4963872;28;120088;-80
2023/09/21 04:40:13;;;;;;;;;;;;;;;21.30;51.13;99712.44;4959189;28;118247;-80
2023/09/21 04:42:47;;;;;;;;;;;;;;;21.29;51.08;99705.38;4966042;28;122870;-77
2023/09/21 04:45:18;;;;;;;;;;;;;;;21.29;51.07;99713.47;4954567;28;123703;-80
2023/09/21 04:47:52;;;;;;;;;;;;;;;21.29;51.15;99717.00;4967734;28;120537;-80
2023/09/21 04:50:20;;;;;;;;;;;;;;;21.29;51.22;99716.16;4961140;28;119586;-80
2023/09/21 04:52:51;;;;;;;;;;;;;;;21.30;51.10;99712.44;4962624;28;124576;-80
2023/09/21 04:55:18;;;;;;;;;;;;;;;21.31;51.16;99706.06;4980555;28;123233;-80
2023/09/21 04:57:46;;;;;;;;;;;;;;;21.30;51.21;99704.34;4978401;28;117960;-81
2023/09/21 05:00:14;;;;;;;;;;;;;;;21.31;51.13;99714.13;4965114;28;118377;-80
2023/09/21 05:02:44;;;;;;;;;;;;;;;21.32;51.15;99705.03;4958418;28;123028;-80
2023/09/21 05:05:15;;;;;;;;;;;;;;;21.31;51.15;99697.97;4967157;28;124219;-80
2023/09/21 05:07:42;;;;;;;;;;;;;;;21.33;51.19;99704.03;4966281;28;119754;-80
2023/09/21 05:10:12;;;;;;;;;;;;;;;21.32;51.19;99705.91;4965094;28;118776;-80
2023/09/21 05:12:40;;;;;;;;;;;;;;;21.33;51.27;99696.78;4959104;28;124298;-80
2023/09/21 05:15:08;;;;;;;;;;;;;;;21.34;51.17;99703.00;4960725;28;123562;-79
2023/09/21 05:17:36;;;;;;;;;;;;;;;21.35;51.20;99699.31;4953036;28;119415;-80
2023/09/21 05:20:06;;;;;;;;;;;;;;;21.36;51.19;99701.00;4960773;28;118569;-80
2023/09/21 05:22:34;;;;;;;;;;;;;;;21.36;51.11;99698.28;4944414;28;124460;-80
2023/09/21 05:25:04;;;;;;;;;;;;;;;21.35;51.19;99694.75;4960050;28;124240;-80
2023/09/21 05:27:31;;;;;;;;;;;;;;;21.37;51.28;99708.06;4962855;28;119722;-80
2023/09/21 05:30:00;;;;;;;;;;;;;;;21.38;51.24;99704.38;4956398;28;119559;-80
2023/09/21 05:32:32;;;;;;;;;;;;;;;21.40;51.20;99713.13;4943537;28;123122;-80
2023/09/21 05:35:03;;;;;;;;;;;;;;;21.40;51.24;99702.38;4966953;28;123660;-80
2023/09/21 05:37:30;;;;;;;;;;;;;;;21.41;51.33;99708.59;4958182;28;120406;-80
2023/09/21 05:39:57;;;;;;;;;;;;;;;21.42;51.27;99716.50;4958275;28;119255;-80
2023/09/21 05:42:24;;;;;;;;;;;;;;;21.42;51.26;99705.72;4965901;28;123921;-80
2023/09/21 05:44:52;;;;;;;;;;;;;;;21.44;51.20;99703.75;4964927;28;124146;-81
2023/09/21 05:47:19;;;;;;;;;;;;;;;21.43;51.13;99707.41;4961453;28;118702;-80
2023/09/21 05:49:46;;;;;;;;;;;;;;;21.42;51.27;99705.72;4964414;28;117093;-80
2023/09/21 05:52:21;;;;;;;;;;;;;;;21.42;51.22;99700.34;4962134;28;123292;-80
2023/09/21 05:58:36;;;;;;;;;;;;;;;21.39;51.28;99684.50;4944146;28;120404;-80
2023/09/21 06:01:03;;;;;;;;;;;;;;;21.37;51.42;99675.75;4926346;28;118222;-80
2023/09/21 06:03:30;;;;;;;;;;;;;;;21.38;51.36;99666.69;4936018;28;124098;-80
2023/09/21 06:05:57;;;;;;;;;;;;;;;21.39;51.38;99673.72;4931461;28;125156;-80
2023/09/21 06:08:25;;;;;;;;;;;;;;;21.41;51.15;99671.72;4897823;28;118753;-80
2023/09/21 06:10:53;;;;;;;;;;;;;;;21.43;51.34;99685.84;4925068;28;118233;-80
2023/09/21 06:13:20;;;;;;;;;;;;;;;21.44;51.33;99676.81;4903595;28;124570;-80
2023/09/21 06:15:48;;;;;;;;;;;;;;;21.44;51.39;99671.41;4924593;28;124016;-80
2023/09/21 06:18:17;;;;;;;;;;;;;;;21.43;51.44;99675.06;4931057;28;120744;-80
2023/09/21 06:20:44;;;;;;;;;;;;;;;21.45;51.43;99678.47;4934455;28;119463;-80
2023/09/21 06:23:11;;;;;;;;;;;;;;;21.46;51.38;99682.84;4927007;28;124034;-80
2023/09/21 06:25:38;;;;;;;;;;;;;;;21.46;51.33;99690.94;4941138;28;124261;-80
2023/09/21 06:28:05;;;;;;;;;;;;;;;21.47;51.37;99681.84;4953101;28;118358;-80
2023/09/21 06:30:33;;;;;;;;;;;;;;;21.50;51.42;99680.69;4958905;28;118813;-80
2023/09/21 06:33:00;;;;;;;;;;;;;;;21.51;51.41;99675.13;4961068;28;122984;-80
2023/09/21 06:35:28;;;;;;;;;;;;;;;21.52;51.47;99679.47;4965186;28;123968;-80
2023/09/21 06:37:55;;;;;;;;;;;;;;;21.54;51.50;99688.22;4961857;28;120075;-80
2023/09/21 06:40:23;;;;;;;;;;;;;;;21.55;51.43;99686.41;4962193;28;118110;-80
2023/09/21 06:42:50;;;;;;;;;;;;;;;21.57;51.45;99693.28;4965090;28;122636;-79
2023/09/21 06:45:18;;;;;;;;;;;;;;;21.57;51.44;99701.38;4956808;28;123045;-78
2023/09/21 06:47:47;;;;;;;;;;;;;;;21.60;51.49;99715.53;4954390;28;119620;-78
2023/09/21 06:50:14;;;;;;;;;;;;;;;21.60;51.41;99704.75;4959047;28;117855;-79
2023/09/21 06:52:41;;;;;;;;;;;;;;;21.58;51.44;99705.75;4961470;28;125410;-79
2023/09/21 06:55:08;;;;;;;;;;;;;;;21.57;51.46;99704.06;4961637;28;123789;-79
2023/09/21 06:57:36;;;;;;;;;;;;;;;21.54;51.38;99709.78;4957946;28;119719;-79
2023/09/21 07:00:08;;;;;;;;;;;;;;;21.51;51.45;99704.75;4959947;28;119436;-79
2023/09/21 07:02:36;;;;;;;;;;;;;;;21.50;51.41;99705.75;4958691;28;124283;-79
2023/09/21 07:05:03;;;;;;;;;;;;;;;21.48;51.43;99710.47;4963234;28;124067;-80
2023/09/21 07:07:31;;;;;;;;;;;;;;;21.44;51.46;99703.75;4957634;28;119610;-81
2023/09/21 07:10:00;;;;;;;;;;;;;;;21.41;51.46;99705.88;4955240;28;117780;-78
2023/09/21 07:12:27;;;;;;;;;;;;;;;21.37;51.52;99702.69;4960052;28;124780;-80
2023/09/21 07:14:55;;;;;;;;;;;;;;;21.34;51.64;99703.00;4955558;28;124061;-79
2023/09/21 07:17:22;;;;;;;;;;;;;;;21.31;51.62;99703.38;4959681;28;122548;-80
2023/09/21 07:19:50;;;;;;;;;;;;;;;21.29;51.81;99694.59;4955825;28;120804;-79
2023/09/21 07:22:17;;;;;;;;;;;;;;;21.29;51.70;99705.38;4957948;28;124278;-80
2023/09/21 07:24:44;;;;;;;;;;;;;;;21.29;51.75;99702.69;4964225;28;124294;-81
2023/09/21 07:27:11;;;;;;;;;;;;;;;21.31;51.84;99708.75;4959034;28;120597;-80
2023/09/21 07:29:39;;;;;;;;;;;;;;;21.31;51.98;99714.13;4957159;28;119748;-80
2023/09/21 07:32:08;;;;;;;;;;;;;;;21.34;51.95;99708.41;4958553;28;124150;-80
2023/09/21 07:34:37;;;;;;;;;;;;;;;21.33;51.84;99701.34;4960364;28;124216;-81
2023/09/21 07:37:04;;;;;;;;;;;;;;;21.31;51.93;99703.38;4964682;28;120119;-78
2023/09/21 07:39:33;;;;;;;;;;;;;;;21.31;51.98;99697.97;4961319;28;118350;-79
2023/09/21 07:42:00;;;;;;;;;;;;;;;21.29;51.89;99702.69;4960598;28;123856;-80
2023/09/21 07:44:27;;;;;;;;;;;;;;;21.29;52.02;99705.38;4971423;28;124868;-80
2023/09/21 07:46:56;;;;;;;;;;;;;;;21.28;52.01;99709.06;4962498;28;120370;-80
2023/09/21 07:49:25;;;;;;;;;;;;;;;21.26;52.03;99695.75;4969579;28;117917;-81
2023/09/21 07:51:55;;;;;;;;;;;;;;;21.25;52.07;99699.47;4968320;28;125306;-80
2023/09/21 07:54:22;;;;;;;;;;;;;;;21.24;52.21;99702.34;4966931;28;124979;-79
2023/09/21 07:56:49;;;;;;;;;;;;;;;21.24;52.09;99702.34;4965481;28;120606;-79
2023/09/21 07:59:16;;;;;;;;;;;;;;;21.24;52.27;99697.78;4959030;28;119148;-79
2023/09/21 08:01:43;;;;;;;;;;;;;;;21.24;52.17;99699.66;4966441;28;124765;-79
2023/09/21 08:04:10;;;;;;;;;;;;;;;21.24;52.24;99708.56;4958187;28;122740;-79
2023/09/21 08:06:37;;;;;;;;;;;;;;;21.22;52.25;99698.97;4961779;28;119859;-79
2023/09/21 08:09:05;;;;;;;;;;;;;;;21.24;52.30;99702.34;4952515;28;119655;-80
2023/09/21 08:11:51;;;;;;;;;;;;;;;21.26;52.33;99708.41;4970393;28;124007;-78
2023/09/21 08:14:19;;;;;;;;;;;;;;;21.27;52.42;99707.41;4959311;28;123796;-79
2023/09/21 08:16:45;;;;;;;;;;;;;;;21.27;52.40;99713.63;4964626;28;119503;-79
2023/09/21 08:19:13;;;;;;;;;;;;;;;21.28;52.37;99714.47;4957376;28;117907;-79
2023/09/21 08:21:40;;;;;;;;;;;;;;;21.27;52.49;99712.78;4965926;28;124049;-79
2023/09/21 08:24:09;;;;;;;;;;;;;;;21.27;52.43;99707.41;4964012;28;124003;-79
2023/09/21 08:26:37;;;;;;;;;;;;;;;21.29;52.50;99721.53;4942585;28;117503;-78
2023/09/21 08:29:04;;;;;;;;;;;;;;;21.30;52.49;99717.81;4963469;28;118613;-80
2023/09/21 08:31:31;;;;;;;;;;;;;;;21.30;52.46;99723.22;4956440;28;123346;-78
2023/09/21 08:33:59;;;;;;;;;;;;;;;21.31;52.52;99730.28;4961645;28;124190;-77
2023/09/21 08:36:26;;;;;;;;;;;;;;;21.32;52.65;99732.81;4963082;28;119213;-77
2023/09/21 08:38:53;;;;;;;;;;;;;;;21.33;52.58;99736.34;4959699;28;118595;-77
2023/09/21 08:41:20;;;;;;;;;;;;;;;21.34;52.67;99735.34;4953006;28;124116;-76
2023/09/21 08:43:49;;;;;;;;;;;;;;;21.37;52.70;99748.47;4961807;28;124208;-77
2023/09/21 08:46:16;;;;;;;;;;;;;;;21.37;52.66;99737.69;4966293;28;119749;-77
2023/09/21 08:48:44;;;;;;;;;;;;;;;21.40;52.68;99745.47;4966808;28;119315;-77
2023/09/21 08:51:15;;;;;;;;;;;;;;;21.43;52.64;99745.13;4960303;28;124357;-77
2023/09/21 08:53:46;;;;;;;;;;;;;;;21.45;52.69;99743.13;4965813;28;124001;-77
2023/09/21 08:56:13;;;;;;;;;;;;;;;21.49;52.73;99749.03;4961401;28;120982;-77
2023/09/21 08:58:41;;;;;;;;;;;;;;;21.52;52.82;99751.41;4967716;28;120371;-76
2023/09/21 09:01:10;;;;;;;;;;;;;;;21.55;52.79;99749.22;4967885;28;124624;-77
2023/09/21 09:03:37;;;;;;;;;;;;;;;21.59;52.88;99760.50;4975206;28;123504;-76
2023/09/21 09:06:04;;;;;;;;;;;;;;;21.65;52.81;99764.38;4967400;28;120690;-78
2023/09/21 09:08:31;;;;;;;;;;;;;;;21.69;52.80;99765.72;4969768;28;118590;-77
2023/09/21 09:10:58;;;;;;;;;;;;;;;21.73;52.96;99772.47;4969328;28;124122;-77
2023/09/21 09:13:32;;;;;;;;;;;;;;;21.76;52.76;99766.75;4970109;28;124135;-76
2023/09/21 09:16:03;;;;;;;;;;;;;;;21.80;52.83;99773.47;4969552;28;119211;-77
2023/09/21 09:18:31;;;;;;;;;;;;;;;21.85;52.89;99771.13;4961597;28;119854;-77
2023/09/21 09:20:59;;;;;;;;;;;;;;;21.88;52.83;99770.78;4965900;28;124182;-76
2023/09/21 09:23:26;;;;;;;;;;;;;;;21.93;52.87;99773.81;4968749;28;124079;-78
2023/09/21 09:25:54;;;;;;;;;;;;;;;22.00;52.90;99762.34;4964069;28;119441;-77
2023/09/21 09:28:21;;;;;;;;;;;;;;;22.07;52.83;99763.34;4964631;28;119346;-77
2023/09/21 09:30:49;;;;;;;;;;;;;;;22.12;52.87;99761.81;4966577;28;125413;-76
2023/09/21 09:33:16;;;;;;;;;;;;;;;22.19;52.98;99764.69;4964746;28;123057;-77
2023/09/21 09:35:46;;;;;;;;;;;;;;;22.26;52.92;99768.41;4970482;28;119130;-77
2023/09/21 09:38:14;;;;;;;;;;;;;;;22.30;52.79;99758.97;4970025;28;118898;-76
2023/09/21 09:40:42;;;;;;;;;;;;;;;22.33;52.89;99758.59;4969931;28;123311;-76
2023/09/21 09:43:11;;;;;;;;;;;;;;;22.37;52.86;99758.28;4968528;28;123710;-76
2023/09/21 09:45:40;;;;;;;;;;;;;;;22.42;52.99;99758.59;4958008;28;120062;-76
2023/09/21 09:48:11;;;;;;;;;;;;;;;22.45;52.81;99760.94;4971623;28;118531;-76
2023/09/21 09:50:41;;;;;;;;;;;;;;;22.47;52.93;99738.19;4968685;28;124074;-76
2023/09/21 09:53:13;;;;;;;;;;;;;;;22.51;53.00;99744.09;4968839;28;123894;-76
2023/09/21 09:55:43;;;;;;;;;;;;;;;22.55;52.98;99748.13;4969265;28;119091;-77
2023/09/21 09:58:10;;;;;;;;;;;;;;;22.59;53.09;99745.91;4958084;28;120444;-76
2023/09/21 10:00:44;;;;;;;;;;;;;;;22.62;52.90;99751.81;4964970;28;123461;-77
2023/09/21 10:03:12;;;;;;;;;;;;;;;22.65;52.87;99751.44;4983096;28;125971;-76
2023/09/21 10:05:40;;;;;;;;;;;;;;;22.69;52.82;99741.97;4967077;28;119315;-77
2023/09/21 10:08:08;;;;;;;;;;;;;;;22.72;52.92;99741.63;4968030;28;118216;-76
2023/09/21 10:10:38;;;;;;;;;;;;;;;22.76;53.05;99746.69;4967427;28;124255;-75
2023/09/21 10:13:05;;;;;;;;;;;;;;;22.80;53.03;99748.00;4966753;28;124330;-77
2023/09/21 10:15:33;;;;;;;;;;;;;;;22.85;53.02;99745.59;4967861;28;119556;-76
2023/09/21 10:18:01;;;;;;;;;;;;;;;22.89;53.14;99746.97;4966436;28;118882;-76
2023/09/21 10:20:32;;;;;;;;;;;;;;;22.92;52.99;99746.59;4962679;28;124069;-76
2023/09/21 10:23:01;;;;;;;;;;;;;;;22.95;53.08;99746.25;4966531;28;124515;-76
2023/09/21 10:25:38;;;;;;;;;;;;;;;22.96;53.04;99741.69;4968522;28;119204;-76
2023/09/21 10:28:22;;;;;;;;;;;;;;;22.98;53.09;99737.81;4967941;28;119036;-78
2023/09/21 10:30:52;;;;;;;;;;;;;;;23.01;53.11;99740.13;4967080;28;124206;-75
2023/09/21 10:33:19;;;;;;;;;;;;;;;23.03;53.09;99738.13;4960685;28;126505;-76
2023/09/21 10:35:46;;;;;;;;;;;;;;;23.08;52.98;99724.94;4960822;28;120124;-76
2023/09/21 10:38:13;;;;;;;;;;;;;;;23.13;53.15;99727.97;4969448;28;119997;-75
2023/09/21 10:40:40;;;;;;;;;;;;;;;23.18;53.22;99723.88;4966479;28;124359;-75
2023/09/21 10:43:27;;;;;;;;;;;;;;;23.25;52.92;99719.44;4956431;28;124225;-76
2023/09/21 10:45:55;;;;;;;;;;;;;;;23.32;53.07;99712.31;4966351;28;119806;-76
2023/09/21 10:48:24;;;;;;;;;;;;;;;23.39;53.16;99715.94;4964519;28;118578;-76
2023/09/21 10:50:52;;;;;;;;;;;;;;;23.47;53.15;99707.78;4959117;28;124528;-76
2023/09/21 10:53:19;;;;;;;;;;;;;;;23.54;53.33;99707.06;4968057;28;124957;-76
2023/09/21 10:55:47;;;;;;;;;;;;;;;23.60;52.97;99706.31;4956440;28;119483;-76
2023/09/21 10:58:16;;;;;;;;;;;;;;;23.60;53.11;99700.91;4958693;28;119017;-76
2023/09/21 11:00:43;;;;;;;;;;;;;;;23.64;53.05;99707.63;4960154;28;124355;-76
2023/09/21 11:03:11;;;;;;;;;;;;;;;23.68;53.05;99699.00;4967373;28;124335;-76
2023/09/21 11:05:39;;;;;;;;;;;;;;;23.72;52.97;99699.47;4950457;28;118287;-76
2023/09/21 11:08:08;;;;;;;;;;;;;;;23.73;53.22;99695.72;4961707;28;118866;-75
2023/09/21 11:10:36;;;;;;;;;;;;;;;23.75;52.99;99692.84;4966240;28;123117;-76
2023/09/21 11:13:03;;;;;;;;;;;;;;;23.78;53.02;99685.22;4964675;28;123124;-75
2023/09/21 11:15:32;;;;;;;;;;;;;;;23.79;53.18;99686.94;4967870;28;119361;-76
2023/09/21 11:17:59;;;;;;;;;;;;;;;23.80;52.99;99694.00;4964385;28;118926;-76
2023/09/21 11:20:27;;;;;;;;;;;;;;;23.81;53.00;99676.78;4961730;28;124154;-76
2023/09/21 11:22:54;;;;;;;;;;;;;;;23.81;53.20;99675.91;4967485;28;123772;-76
2023/09/21 11:25:22;;;;;;;;;;;;;;;23.82;52.98;99672.22;4967617;28;120347;-76
2023/09/21 11:27:50;;;;;;;;;;;;;;;23.82;53.13;99673.03;4968104;28;120575;-75
2023/09/21 11:30:18;;;;;;;;;;;;;;;23.83;53.04;99658.50;4968246;28;124548;-78
2023/09/21 11:32:46;;;;;;;;;;;;;;;23.83;52.88;99658.50;4958743;28;122598;-78
2023/09/21 11:35:17;;;;;;;;;;;;;;;23.84;53.09;99649.34;4962184;28;120700;-78
2023/09/21 11:37:46;;;;;;;;;;;;;;;23.85;53.17;99664.56;4967903;28;118883;-78
2023/09/21 11:40:21;;;;;;;;;;;;;;;23.85;53.01;99667.28;4955047;28;123332;-77
2023/09/21 11:42:48;;;;;;;;;;;;;;;23.84;52.94;99660.16;4967966;28;124382;-78
2023/09/21 11:45:16;;;;;;;;;;;;;;;23.83;52.79;99663.91;4965407;28;119602;-78
2023/09/21 11:47:48;;;;;;;;;;;;;;;23.83;52.97;99655.81;4965359;28;117978;-78
2023/09/21 11:50:30;;;;;;;;;;;;;;;23.83;52.94;99658.50;4964027;28;122241;-76
2023/09/21 11:52:57;;;;;;;;;;;;;;;23.82;52.94;99656.81;4956010;28;122569;-76
2023/09/21 11:55:25;;;;;;;;;;;;;;;23.82;53.13;99654.13;4948343;28;118816;-76
2023/09/21 11:57:54;;;;;;;;;;;;;;;23.83;53.08;99658.50;4976840;28;118959;-76
2023/09/21 12:00:38;;;;;;;;;;;;;;;23.85;53.16;99648.34;4962639;28;123868;-77
2023/09/21 12:03:07;;;;;;;;;;;;;;;23.88;53.04;99639.88;4968011;28;125211;-76
2023/09/21 12:05:35;;;;;;;;;;;;;;;23.90;53.16;99637.81;4971559;28;119607;-75
2023/09/21 12:08:05;;;;;;;;;;;;;;;23.94;53.03;99637.44;4965370;28;118202;-75
2023/09/21 12:10:32;;;;;;;;;;;;;;;23.95;53.18;99633.72;4945323;28;123895;-75
2023/09/21 12:12:59;;;;;;;;;;;;;;;23.97;53.13;99634.38;4962950;28;124192;-75
2023/09/21 12:15:27;;;;;;;;;;;;;;;23.97;53.04;99637.06;4959108;28;119243;-76
2023/09/21 12:17:54;;;;;;;;;;;;;;;23.97;52.91;99634.38;4953995;28;120250;-75
2023/09/21 12:20:21;;;;;;;;;;;;;;;23.96;53.17;99629.97;4957988;28;124123;-76
2023/09/21 12:22:48;;;;;;;;;;;;;;;23.97;52.89;99628.94;4966256;28;124441;-75
2023/09/21 12:25:15;;;;;;;;;;;;;;;23.97;52.95;99642.47;4961723;28;120087;-76
2023/09/21 12:27:43;;;;;;;;;;;;;;;23.97;53.14;99634.38;4961768;28;118839;-75
2023/09/21 12:30:14;;;;;;;;;;;;;;;23.96;52.80;99662.41;4958566;28;124011;-76
2023/09/21 12:32:44;;;;;;;;;;;;;;;23.90;52.92;99670.28;4958825;28;123177;-76
2023/09/21 12:35:11;;;;;;;;;;;;;;;23.79;52.62;99678.84;4965535;28;119763;-75
2023/09/21 12:37:42;;;;;;;;;;;;;;;23.64;52.59;99680.59;4957033;28;118672;-75
2023/09/21 12:40:12;;;;;;;;;;;;;;;23.43;52.21;99679.47;4959786;28;123854;-76
2023/09/21 12:42:42;;;;;;;;;;;;;;;23.22;52.33;99671.16;4968399;28;123253;-76
2023/09/21 12:45:14;;;;;;;;;;;;;;;23.03;52.56;99697.63;4964222;28;120460;-76
2023/09/21 12:47:46;;;;;;;;;;;;;;;22.83;52.38;99677.44;4962009;28;118797;-77
2023/09/21 12:50:14;;;;;;;;;;;;;;;22.62;52.51;99688.88;4969200;28;123599;-77